sensor_id;sensor_type;location;lat;lon;timestamp;P1;durP1;ratioP1;P2;durP2;ratioP2
38034;SDS011;23841;48.524;1.342;2023-06-22T00:01:42;4.47;;;2.30;;
38034;SDS011;23841;48.524;1.342;2023-06-22T00:04:08;3.63;;;2.15;;
38034;SDS011;23841;48.524;1.342;2023-06-22T00:06:33;3.38;;;2.17;;
38034;SDS011;23841;48.524;1.342;2023-06-22T00:08:59;5.32;;;2.20;;
38034;SDS011;23841;48.524;1.342;2023-06-22T00:11:24;2.80;;;1.88;;
38034;SDS011;23841;48.524;1.342;2023-06-22T00:13:50;3.22;;;1.80;;
38034;SDS011;23841;48.524;1.342;2023-06-22T00:16:17;3.70;;;2.28;;
38034;SDS011;23841;48.524;1.342;2023-06-22T00:18:42;3.78;;;2.38;;
38034;SDS011;23841;48.524;1.342;2023-06-22T00:21:12;3.53;;;2.20;;
38034;SDS011;23841;48.524;1.342;2023-06-22T00:23:38;4.32;;;2.33;;
38034;SDS011;23841;48.524;1.342;2023-06-22T00:26:05;3.92;;;2.30;;
38034;SDS011;23841;48.524;1.342;2023-06-22T00:28:36;3.00;;;2.00;;
38034;SDS011;23841;48.524;1.342;2023-06-22T00:31:02;3.53;;;2.20;;
38034;SDS011;23841;48.524;1.342;2023-06-22T00:33:27;3.35;;;1.83;;
38034;SDS011;23841;48.524;1.342;2023-06-22T00:35:53;3.58;;;2.10;;
38034;SDS011;23841;48.524;1.342;2023-06-22T00:38:19;3.72;;;2.13;;
38034;SDS011;23841;48.524;1.342;2023-06-22T00:40:45;3.50;;;2.17;;
38034;SDS011;23841;48.524;1.342;2023-06-22T00:43:11;3.95;;;2.40;;
38034;SDS011;23841;48.524;1.342;2023-06-22T00:45:37;5.65;;;2.30;;
38034;SDS011;23841;48.524;1.342;2023-06-22T00:48:03;5.00;;;2.30;;
38034;SDS011;23841;48.524;1.342;2023-06-22T00:50:30;3.47;;;2.00;;
38034;SDS011;23841;48.524;1.342;2023-06-22T00:52:59;3.20;;;2.10;;
38034;SDS011;23841;48.524;1.342;2023-06-22T00:55:27;3.22;;;2.10;;
38034;SDS011;23841;48.524;1.342;2023-06-22T00:57:53;4.55;;;2.72;;
38034;SDS011;23841;48.524;1.342;2023-06-22T01:00:24;2.42;;;1.90;;
38034;SDS011;23841;48.524;1.342;2023-06-22T01:02:50;3.30;;;2.10;;
38034;SDS011;23841;48.524;1.342;2023-06-22T01:05:21;3.33;;;2.10;;
38034;SDS011;23841;48.524;1.342;2023-06-22T01:10:54;3.15;;;2.22;;
38034;SDS011;23841;48.524;1.342;2023-06-22T01:18:59;4.18;;;2.05;;
38034;SDS011;23841;48.524;1.342;2023-06-22T01:21:28;2.85;;;2.00;;
38034;SDS011;23841;48.524;1.342;2023-06-22T01:29:19;2.92;;;1.90;;
38034;SDS011;23841;48.524;1.342;2023-06-22T01:31:46;5.05;;;2.10;;
38034;SDS011;23841;48.524;1.342;2023-06-22T01:34:13;3.13;;;2.22;;
38034;SDS011;23841;48.524;1.342;2023-06-22T01:36:39;3.85;;;2.38;;
38034;SDS011;23841;48.524;1.342;2023-06-22T01:39:06;3.85;;;1.85;;
38034;SDS011;23841;48.524;1.342;2023-06-22T01:41:35;3.30;;;2.00;;
38034;SDS011;23841;48.524;1.342;2023-06-22T01:44:04;3.65;;;2.38;;
38034;SDS011;23841;48.524;1.342;2023-06-22T01:46:32;3.45;;;1.98;;
38034;SDS011;23841;48.524;1.342;2023-06-22T01:48:59;2.90;;;1.98;;
38034;SDS011;23841;48.524;1.342;2023-06-22T01:51:25;3.53;;;2.17;;
38034;SDS011;23841;48.524;1.342;2023-06-22T01:53:50;3.60;;;1.95;;
38034;SDS011;23841;48.524;1.342;2023-06-22T01:56:16;3.72;;;2.10;;
38034;SDS011;23841;48.524;1.342;2023-06-22T01:59:08;3.80;;;2.35;;
38034;SDS011;23841;48.524;1.342;2023-06-22T02:01:51;3.60;;;2.10;;
38034;SDS011;23841;48.524;1.342;2023-06-22T02:04:27;4.07;;;2.55;;
38034;SDS011;23841;48.524;1.342;2023-06-22T02:07:00;3.50;;;1.90;;
38034;SDS011;23841;48.524;1.342;2023-06-22T02:09:31;3.42;;;2.25;;
38034;SDS011;23841;48.524;1.342;2023-06-22T02:12:00;4.60;;;2.25;;
38034;SDS011;23841;48.524;1.342;2023-06-22T02:14:28;3.83;;;2.17;;
38034;SDS011;23841;48.524;1.342;2023-06-22T02:16:54;2.95;;;2.00;;
38034;SDS011;23841;48.524;1.342;2023-06-22T02:19:23;3.85;;;2.20;;
38034;SDS011;23841;48.524;1.342;2023-06-22T02:21:49;3.58;;;2.17;;
38034;SDS011;23841;48.524;1.342;2023-06-22T02:24:15;3.08;;;1.92;;
38034;SDS011;23841;48.524;1.342;2023-06-22T02:26:40;3.83;;;2.28;;
38034;SDS011;23841;48.524;1.342;2023-06-22T02:29:08;3.67;;;2.00;;
38034;SDS011;23841;48.524;1.342;2023-06-22T02:31:33;3.33;;;2.10;;
38034;SDS011;23841;48.524;1.342;2023-06-22T02:33:59;3.20;;;2.20;;
38034;SDS011;23841;48.524;1.342;2023-06-22T02:36:25;4.88;;;2.45;;
38034;SDS011;23841;48.524;1.342;2023-06-22T02:38:52;3.72;;;2.28;;
38034;SDS011;23841;48.524;1.342;2023-06-22T02:41:19;3.50;;;2.20;;
38034;SDS011;23841;48.524;1.342;2023-06-22T02:43:45;3.50;;;2.30;;
38034;SDS011;23841;48.524;1.342;2023-06-22T02:46:11;4.45;;;2.53;;
38034;SDS011;23841;48.524;1.342;2023-06-22T02:48:38;3.20;;;2.00;;
38034;SDS011;23841;48.524;1.342;2023-06-22T02:51:06;6.43;;;2.45;;
38034;SDS011;23841;48.524;1.342;2023-06-22T02:53:32;3.38;;;2.10;;
38034;SDS011;23841;48.524;1.342;2023-06-22T02:55:57;3.20;;;2.25;;
38034;SDS011;23841;48.524;1.342;2023-06-22T02:58:23;2.95;;;2.00;;
38034;SDS011;23841;48.524;1.342;2023-06-22T03:00:49;3.35;;;2.38;;
38034;SDS011;23841;48.524;1.342;2023-06-22T03:03:17;4.78;;;2.50;;
38034;SDS011;23841;48.524;1.342;2023-06-22T03:05:43;3.95;;;2.40;;
38034;SDS011;23841;48.524;1.342;2023-06-22T03:08:09;4.20;;;2.47;;
38034;SDS011;23841;48.524;1.342;2023-06-22T03:10:34;5.32;;;2.35;;
38034;SDS011;23841;48.524;1.342;2023-06-22T03:13:00;4.30;;;2.38;;
38034;SDS011;23841;48.524;1.342;2023-06-22T03:15:25;3.78;;;2.00;;
38034;SDS011;23841;48.524;1.342;2023-06-22T03:17:51;2.83;;;2.17;;
38034;SDS011;23841;48.524;1.342;2023-06-22T03:20:16;4.00;;;2.22;;
38034;SDS011;23841;48.524;1.342;2023-06-22T03:22:42;3.50;;;2.13;;
38034;SDS011;23841;48.524;1.342;2023-06-22T03:25:08;4.25;;;2.80;;
38034;SDS011;23841;48.524;1.342;2023-06-22T03:27:40;4.22;;;2.60;;
38034;SDS011;23841;48.524;1.342;2023-06-22T03:30:07;3.95;;;2.45;;
38034;SDS011;23841;48.524;1.342;2023-06-22T03:32:34;5.57;;;2.83;;
38034;SDS011;23841;48.524;1.342;2023-06-22T03:34:59;4.63;;;2.33;;
38034;SDS011;23841;48.524;1.342;2023-06-22T03:37:25;4.28;;;2.35;;
38034;SDS011;23841;48.524;1.342;2023-06-22T03:39:51;3.90;;;2.35;;
38034;SDS011;23841;48.524;1.342;2023-06-22T03:42:17;3.35;;;2.10;;
38034;SDS011;23841;48.524;1.342;2023-06-22T03:44:42;4.35;;;2.28;;
38034;SDS011;23841;48.524;1.342;2023-06-22T03:47:07;4.05;;;2.25;;
38034;SDS011;23841;48.524;1.342;2023-06-22T03:49:33;4.35;;;2.50;;
38034;SDS011;23841;48.524;1.342;2023-06-22T03:52:01;4.47;;;2.63;;
38034;SDS011;23841;48.524;1.342;2023-06-22T03:54:28;4.80;;;2.58;;
38034;SDS011;23841;48.524;1.342;2023-06-22T03:56:55;5.25;;;2.50;;
38034;SDS011;23841;48.524;1.342;2023-06-22T03:59:21;2.80;;;1.90;;
38034;SDS011;23841;48.524;1.342;2023-06-22T04:01:46;4.53;;;2.53;;
38034;SDS011;23841;48.524;1.342;2023-06-22T04:04:12;3.47;;;2.45;;
38034;SDS011;23841;48.524;1.342;2023-06-22T04:06:37;3.70;;;2.33;;
38034;SDS011;23841;48.524;1.342;2023-06-22T04:09:03;3.05;;;2.08;;
38034;SDS011;23841;48.524;1.342;2023-06-22T04:11:30;4.13;;;2.33;;
38034;SDS011;23841;48.524;1.342;2023-06-22T04:13:56;4.90;;;2.50;;
38034;SDS011;23841;48.524;1.342;2023-06-22T04:16:21;3.50;;;2.10;;
38034;SDS011;23841;48.524;1.342;2023-06-22T04:18:46;3.75;;;2.45;;
38034;SDS011;23841;48.524;1.342;2023-06-22T04:21:12;3.97;;;2.58;;
38034;SDS011;23841;48.524;1.342;2023-06-22T04:23:38;3.08;;;2.17;;
38034;SDS011;23841;48.524;1.342;2023-06-22T04:26:04;4.05;;;2.30;;
38034;SDS011;23841;48.524;1.342;2023-06-22T04:28:29;3.38;;;2.20;;
38034;SDS011;23841;48.524;1.342;2023-06-22T04:30:59;3.58;;;2.42;;
38034;SDS011;23841;48.524;1.342;2023-06-22T04:33:27;4.63;;;2.30;;
38034;SDS011;23841;48.524;1.342;2023-06-22T04:35:54;3.70;;;2.25;;
38034;SDS011;23841;48.524;1.342;2023-06-22T04:38:22;3.25;;;2.17;;
38034;SDS011;23841;48.524;1.342;2023-06-22T04:40:48;3.97;;;2.40;;
38034;SDS011;23841;48.524;1.342;2023-06-22T04:43:13;3.58;;;2.30;;
38034;SDS011;23841;48.524;1.342;2023-06-22T04:45:39;4.72;;;2.58;;
38034;SDS011;23841;48.524;1.342;2023-06-22T04:48:04;4.88;;;2.47;;
38034;SDS011;23841;48.524;1.342;2023-06-22T04:50:30;4.07;;;2.40;;
38034;SDS011;23841;48.524;1.342;2023-06-22T04:52:56;4.05;;;2.47;;
38034;SDS011;23841;48.524;1.342;2023-06-22T04:55:23;3.78;;;2.30;;
38034;SDS011;23841;48.524;1.342;2023-06-22T04:57:51;3.38;;;2.08;;
38034;SDS011;23841;48.524;1.342;2023-06-22T05:00:19;3.88;;;2.47;;
38034;SDS011;23841;48.524;1.342;2023-06-22T05:02:49;3.38;;;2.33;;
38034;SDS011;23841;48.524;1.342;2023-06-22T05:05:17;3.90;;;2.33;;
38034;SDS011;23841;48.524;1.342;2023-06-22T05:07:44;4.15;;;2.20;;
38034;SDS011;23841;48.524;1.342;2023-06-22T05:10:14;3.72;;;2.45;;
38034;SDS011;23841;48.524;1.342;2023-06-22T05:12:40;4.05;;;2.72;;
38034;SDS011;23841;48.524;1.342;2023-06-22T05:15:06;3.85;;;2.40;;
38034;SDS011;23841;48.524;1.342;2023-06-22T05:17:33;4.43;;;2.40;;
38034;SDS011;23841;48.524;1.342;2023-06-22T05:19:58;4.22;;;2.20;;
38034;SDS011;23841;48.524;1.342;2023-06-22T05:22:24;3.50;;;2.42;;
38034;SDS011;23841;48.524;1.342;2023-06-22T05:24:49;5.97;;;2.90;;
38034;SDS011;23841;48.524;1.342;2023-06-22T05:27:15;2.92;;;1.98;;
38034;SDS011;23841;48.524;1.342;2023-06-22T05:29:40;3.20;;;2.25;;
38034;SDS011;23841;48.524;1.342;2023-06-22T05:32:07;3.70;;;2.55;;
38034;SDS011;23841;48.524;1.342;2023-06-22T05:34:33;3.80;;;2.45;;
38034;SDS011;23841;48.524;1.342;2023-06-22T05:36:58;4.93;;;2.60;;
38034;SDS011;23841;48.524;1.342;2023-06-22T05:39:24;5.35;;;2.60;;
38034;SDS011;23841;48.524;1.342;2023-06-22T05:41:49;4.18;;;2.50;;
38034;SDS011;23841;48.524;1.342;2023-06-22T05:44:15;4.38;;;2.58;;
38034;SDS011;23841;48.524;1.342;2023-06-22T05:46:41;5.05;;;2.30;;
38034;SDS011;23841;48.524;1.342;2023-06-22T05:49:12;3.35;;;2.35;;
38034;SDS011;23841;48.524;1.342;2023-06-22T05:51:38;4.72;;;2.72;;
38034;SDS011;23841;48.524;1.342;2023-06-22T05:54:04;3.55;;;2.50;;
38034;SDS011;23841;48.524;1.342;2023-06-22T05:56:29;4.30;;;2.40;;
38034;SDS011;23841;48.524;1.342;2023-06-22T05:58:55;3.80;;;2.30;;
38034;SDS011;23841;48.524;1.342;2023-06-22T06:01:20;4.63;;;2.60;;
38034;SDS011;23841;48.524;1.342;2023-06-22T06:03:46;6.50;;;2.50;;
38034;SDS011;23841;48.524;1.342;2023-06-22T06:06:11;4.13;;;2.55;;
38034;SDS011;23841;48.524;1.342;2023-06-22T06:08:38;4.38;;;2.40;;
38034;SDS011;23841;48.524;1.342;2023-06-22T06:11:03;5.22;;;2.58;;
38034;SDS011;23841;48.524;1.342;2023-06-22T06:13:29;3.47;;;2.13;;
38034;SDS011;23841;48.524;1.342;2023-06-22T06:15:54;4.47;;;2.35;;
38034;SDS011;23841;48.524;1.342;2023-06-22T06:18:21;5.28;;;2.72;;
38034;SDS011;23841;48.524;1.342;2023-06-22T06:20:46;4.10;;;2.20;;
38034;SDS011;23841;48.524;1.342;2023-06-22T06:23:12;4.35;;;2.30;;
38034;SDS011;23841;48.524;1.342;2023-06-22T06:25:38;4.55;;;2.60;;
38034;SDS011;23841;48.524;1.342;2023-06-22T06:28:03;3.65;;;2.50;;
38034;SDS011;23841;48.524;1.342;2023-06-22T06:30:29;4.70;;;2.50;;
38034;SDS011;23841;48.524;1.342;2023-06-22T06:32:55;4.10;;;2.80;;
38034;SDS011;23841;48.524;1.342;2023-06-22T06:35:20;5.15;;;2.38;;
38034;SDS011;23841;48.524;1.342;2023-06-22T06:37:48;3.92;;;2.10;;
38034;SDS011;23841;48.524;1.342;2023-06-22T06:40:15;4.10;;;2.72;;
38034;SDS011;23841;48.524;1.342;2023-06-22T06:42:45;4.10;;;2.50;;
38034;SDS011;23841;48.524;1.342;2023-06-22T06:45:12;4.47;;;2.47;;
38034;SDS011;23841;48.524;1.342;2023-06-22T06:47:42;4.45;;;2.42;;
38034;SDS011;23841;48.524;1.342;2023-06-22T06:50:08;4.90;;;2.67;;
38034;SDS011;23841;48.524;1.342;2023-06-22T06:52:33;4.03;;;2.58;;
38034;SDS011;23841;48.524;1.342;2023-06-22T06:54:59;4.10;;;2.47;;
38034;SDS011;23841;48.524;1.342;2023-06-22T06:57:25;5.70;;;3.25;;
38034;SDS011;23841;48.524;1.342;2023-06-22T06:59:54;5.32;;;2.40;;
38034;SDS011;23841;48.524;1.342;2023-06-22T07:02:20;4.20;;;2.85;;
38034;SDS011;23841;48.524;1.342;2023-06-22T07:04:46;4.97;;;3.20;;
38034;SDS011;23841;48.524;1.342;2023-06-22T07:07:12;5.72;;;2.95;;
38034;SDS011;23841;48.524;1.342;2023-06-22T07:09:37;5.20;;;2.75;;
38034;SDS011;23841;48.524;1.342;2023-06-22T07:12:03;6.65;;;3.20;;
38034;SDS011;23841;48.524;1.342;2023-06-22T07:14:29;5.35;;;3.20;;
38034;SDS011;23841;48.524;1.342;2023-06-22T07:16:57;4.97;;;3.03;;
38034;SDS011;23841;48.524;1.342;2023-06-22T07:19:26;6.32;;;3.25;;
38034;SDS011;23841;48.524;1.342;2023-06-22T07:21:52;5.03;;;3.40;;
38034;SDS011;23841;48.524;1.342;2023-06-22T07:24:19;4.50;;;3.10;;
38034;SDS011;23841;48.524;1.342;2023-06-22T07:26:46;5.30;;;3.47;;
38034;SDS011;23841;48.524;1.342;2023-06-22T07:29:18;6.20;;;3.33;;
38034;SDS011;23841;48.524;1.342;2023-06-22T07:31:45;7.35;;;3.97;;
38034;SDS011;23841;48.524;1.342;2023-06-22T07:34:10;6.45;;;3.60;;
38034;SDS011;23841;48.524;1.342;2023-06-22T07:36:36;7.85;;;3.72;;
38034;SDS011;23841;48.524;1.342;2023-06-22T07:39:02;6.30;;;4.03;;
38034;SDS011;23841;48.524;1.342;2023-06-22T07:41:28;7.20;;;3.60;;
38034;SDS011;23841;48.524;1.342;2023-06-22T07:43:54;7.53;;;3.75;;
38034;SDS011;23841;48.524;1.342;2023-06-22T07:46:19;6.00;;;3.78;;
38034;SDS011;23841;48.524;1.342;2023-06-22T07:48:45;6.80;;;4.30;;
38034;SDS011;23841;48.524;1.342;2023-06-22T07:51:10;7.25;;;3.97;;
38034;SDS011;23841;48.524;1.342;2023-06-22T07:53:38;7.65;;;4.70;;
38034;SDS011;23841;48.524;1.342;2023-06-22T07:56:05;6.82;;;4.03;;
38034;SDS011;23841;48.524;1.342;2023-06-22T07:58:32;6.93;;;3.83;;
38034;SDS011;23841;48.524;1.342;2023-06-22T08:00:58;7.28;;;4.60;;
38034;SDS011;23841;48.524;1.342;2023-06-22T08:03:23;8.02;;;5.03;;
38034;SDS011;23841;48.524;1.342;2023-06-22T08:05:49;7.05;;;4.25;;
38034;SDS011;23841;48.524;1.342;2023-06-22T08:08:14;7.28;;;4.28;;
38034;SDS011;23841;48.524;1.342;2023-06-22T08:10:40;5.90;;;4.20;;
38034;SDS011;23841;48.524;1.342;2023-06-22T08:13:07;6.88;;;4.50;;
38034;SDS011;23841;48.524;1.342;2023-06-22T08:15:32;7.53;;;4.82;;
38034;SDS011;23841;48.524;1.342;2023-06-22T08:17:58;6.38;;;4.20;;
38034;SDS011;23841;48.524;1.342;2023-06-22T08:20:25;7.72;;;4.22;;
38034;SDS011;23841;48.524;1.342;2023-06-22T08:22:50;6.07;;;3.88;;
38034;SDS011;23841;48.524;1.342;2023-06-22T08:25:15;6.63;;;4.50;;
38034;SDS011;23841;48.524;1.342;2023-06-22T08:27:44;7.30;;;4.30;;
38034;SDS011;23841;48.524;1.342;2023-06-22T08:30:11;5.80;;;3.90;;
38034;SDS011;23841;48.524;1.342;2023-06-22T08:32:36;7.00;;;4.15;;
38034;SDS011;23841;48.524;1.342;2023-06-22T08:35:02;6.88;;;4.00;;
38034;SDS011;23841;48.524;1.342;2023-06-22T08:37:28;7.65;;;4.88;;
38034;SDS011;23841;48.524;1.342;2023-06-22T08:40:00;7.65;;;4.28;;
38034;SDS011;23841;48.524;1.342;2023-06-22T08:42:31;6.15;;;4.00;;
38034;SDS011;23841;48.524;1.342;2023-06-22T08:44:57;5.25;;;3.97;;
38034;SDS011;23841;48.524;1.342;2023-06-22T08:47:23;6.90;;;4.00;;
38034;SDS011;23841;48.524;1.342;2023-06-22T08:49:49;9.43;;;4.47;;
38034;SDS011;23841;48.524;1.342;2023-06-22T08:52:14;6.82;;;4.47;;
38034;SDS011;23841;48.524;1.342;2023-06-22T08:54:40;6.88;;;4.22;;
38034;SDS011;23841;48.524;1.342;2023-06-22T08:57:05;5.93;;;4.15;;
38034;SDS011;23841;48.524;1.342;2023-06-22T08:59:31;6.78;;;4.65;;
38034;SDS011;23841;48.524;1.342;2023-06-22T09:01:57;7.03;;;4.43;;
38034;SDS011;23841;48.524;1.342;2023-06-22T09:04:22;6.20;;;3.70;;
38034;SDS011;23841;48.524;1.342;2023-06-22T09:06:48;6.35;;;4.15;;
38034;SDS011;23841;48.524;1.342;2023-06-22T09:09:15;7.35;;;4.72;;
38034;SDS011;23841;48.524;1.342;2023-06-22T09:11:42;7.32;;;5.10;;
38034;SDS011;23841;48.524;1.342;2023-06-22T09:14:08;6.97;;;4.75;;
38034;SDS011;23841;48.524;1.342;2023-06-22T09:16:34;9.52;;;4.53;;
38034;SDS011;23841;48.524;1.342;2023-06-22T09:18:59;6.82;;;4.90;;
38034;SDS011;23841;48.524;1.342;2023-06-22T09:21:24;7.88;;;5.07;;
38034;SDS011;23841;48.524;1.342;2023-06-22T09:23:50;7.60;;;5.38;;
38034;SDS011;23841;48.524;1.342;2023-06-22T09:26:19;9.55;;;5.57;;
38034;SDS011;23841;48.524;1.342;2023-06-22T09:28:46;9.02;;;5.43;;
38034;SDS011;23841;48.524;1.342;2023-06-22T09:31:12;6.57;;;4.65;;
38034;SDS011;23841;48.524;1.342;2023-06-22T09:33:37;7.90;;;5.57;;
38034;SDS011;23841;48.524;1.342;2023-06-22T09:36:05;9.82;;;5.60;;
38034;SDS011;23841;48.524;1.342;2023-06-22T09:38:34;7.63;;;5.10;;
38034;SDS011;23841;48.524;1.342;2023-06-22T09:41:00;7.72;;;4.93;;
38034;SDS011;23841;48.524;1.342;2023-06-22T09:43:26;8.43;;;5.82;;
38034;SDS011;23841;48.524;1.342;2023-06-22T09:45:52;7.63;;;5.10;;
38034;SDS011;23841;48.524;1.342;2023-06-22T09:48:17;7.47;;;4.70;;
38034;SDS011;23841;48.524;1.342;2023-06-22T09:50:43;6.88;;;5.18;;
38034;SDS011;23841;48.524;1.342;2023-06-22T09:53:09;9.85;;;5.43;;
38034;SDS011;23841;48.524;1.342;2023-06-22T09:55:34;8.75;;;4.82;;
38034;SDS011;23841;48.524;1.342;2023-06-22T09:57:59;7.07;;;4.95;;
38034;SDS011;23841;48.524;1.342;2023-06-22T10:00:25;8.00;;;5.43;;
38034;SDS011;23841;48.524;1.342;2023-06-22T10:02:51;9.50;;;4.70;;
38034;SDS011;23841;48.524;1.342;2023-06-22T10:05:17;9.00;;;4.85;;
38034;SDS011;23841;48.524;1.342;2023-06-22T10:07:42;7.47;;;4.38;;
38034;SDS011;23841;48.524;1.342;2023-06-22T10:10:09;7.30;;;4.32;;
38034;SDS011;23841;48.524;1.342;2023-06-22T10:12:36;6.20;;;4.00;;
38034;SDS011;23841;48.524;1.342;2023-06-22T10:15:08;7.60;;;4.55;;
38034;SDS011;23841;48.524;1.342;2023-06-22T10:17:33;7.72;;;4.88;;
38034;SDS011;23841;48.524;1.342;2023-06-22T10:20:00;7.53;;;4.18;;
38034;SDS011;23841;48.524;1.342;2023-06-22T10:22:26;7.53;;;4.57;;
38034;SDS011;23841;48.524;1.342;2023-06-22T10:24:51;6.47;;;4.63;;
38034;SDS011;23841;48.524;1.342;2023-06-22T10:27:17;8.52;;;5.05;;
38034;SDS011;23841;48.524;1.342;2023-06-22T10:29:42;8.90;;;5.22;;
38034;SDS011;23841;48.524;1.342;2023-06-22T10:32:08;7.65;;;5.28;;
38034;SDS011;23841;48.524;1.342;2023-06-22T10:34:33;9.27;;;5.72;;
38034;SDS011;23841;48.524;1.342;2023-06-22T10:36:59;9.88;;;5.65;;
38034;SDS011;23841;48.524;1.342;2023-06-22T10:39:24;8.13;;;5.53;;
38034;SDS011;23841;48.524;1.342;2023-06-22T10:41:50;10.43;;;5.72;;
38034;SDS011;23841;48.524;1.342;2023-06-22T10:44:15;8.05;;;5.90;;
38034;SDS011;23841;48.524;1.342;2023-06-22T10:46:42;12.73;;;6.50;;
38034;SDS011;23841;48.524;1.342;2023-06-22T10:49:08;9.57;;;5.28;;
38034;SDS011;23841;48.524;1.342;2023-06-22T10:51:33;8.82;;;5.70;;
38034;SDS011;23841;48.524;1.342;2023-06-22T10:53:59;10.27;;;6.07;;
38034;SDS011;23841;48.524;1.342;2023-06-22T10:56:24;8.90;;;5.68;;
38034;SDS011;23841;48.524;1.342;2023-06-22T10:58:50;7.68;;;5.00;;
38034;SDS011;23841;48.524;1.342;2023-06-22T11:01:15;9.20;;;5.85;;
38034;SDS011;23841;48.524;1.342;2023-06-22T11:03:40;7.97;;;5.68;;
38034;SDS011;23841;48.524;1.342;2023-06-22T11:06:06;10.77;;;5.70;;
38034;SDS011;23841;48.524;1.342;2023-06-22T11:08:31;10.15;;;5.03;;
38034;SDS011;23841;48.524;1.342;2023-06-22T11:10:57;9.55;;;5.80;;
38034;SDS011;23841;48.524;1.342;2023-06-22T11:13:22;9.43;;;6.30;;
38034;SDS011;23841;48.524;1.342;2023-06-22T11:15:48;9.15;;;5.53;;
38034;SDS011;23841;48.524;1.342;2023-06-22T11:18:13;8.48;;;5.68;;
38034;SDS011;23841;48.524;1.342;2023-06-22T11:20:39;7.95;;;5.57;;
38034;SDS011;23841;48.524;1.342;2023-06-22T11:23:05;11.07;;;6.28;;
38034;SDS011;23841;48.524;1.342;2023-06-22T11:25:34;8.85;;;5.55;;
38034;SDS011;23841;48.524;1.342;2023-06-22T11:28:03;9.10;;;5.25;;
38034;SDS011;23841;48.524;1.342;2023-06-22T11:30:30;10.27;;;5.90;;
38034;SDS011;23841;48.524;1.342;2023-06-22T11:32:58;8.98;;;5.28;;
38034;SDS011;23841;48.524;1.342;2023-06-22T11:35:25;10.77;;;6.00;;
38034;SDS011;23841;48.524;1.342;2023-06-22T11:37:50;10.85;;;5.25;;
38034;SDS011;23841;48.524;1.342;2023-06-22T11:40:16;9.63;;;6.85;;
38034;SDS011;23841;48.524;1.342;2023-06-22T11:42:43;9.88;;;6.43;;
38034;SDS011;23841;48.524;1.342;2023-06-22T11:45:09;7.38;;;4.72;;
38034;SDS011;23841;48.524;1.342;2023-06-22T11:47:35;8.20;;;5.35;;
38034;SDS011;23841;48.524;1.342;2023-06-22T11:50:01;8.77;;;5.45;;
38034;SDS011;23841;48.524;1.342;2023-06-22T11:52:27;10.10;;;5.45;;
38034;SDS011;23841;48.524;1.342;2023-06-22T11:54:53;8.45;;;5.50;;
38034;SDS011;23841;48.524;1.342;2023-06-22T11:57:18;10.15;;;5.82;;
38034;SDS011;23841;48.524;1.342;2023-06-22T11:59:44;9.82;;;5.15;;
38034;SDS011;23841;48.524;1.342;2023-06-22T12:02:09;9.05;;;4.75;;
38034;SDS011;23841;48.524;1.342;2023-06-22T12:04:35;10.85;;;5.40;;
38034;SDS011;23841;48.524;1.342;2023-06-22T12:07:00;7.15;;;4.35;;
38034;SDS011;23841;48.524;1.342;2023-06-22T12:09:26;5.80;;;3.95;;
38034;SDS011;23841;48.524;1.342;2023-06-22T12:11:51;7.65;;;3.95;;
38034;SDS011;23841;48.524;1.342;2023-06-22T12:14:16;6.15;;;3.65;;
38034;SDS011;23841;48.524;1.342;2023-06-22T12:16:42;8.63;;;4.05;;
38034;SDS011;23841;48.524;1.342;2023-06-22T12:19:09;6.85;;;3.40;;
38034;SDS011;23841;48.524;1.342;2023-06-22T12:21:37;6.15;;;3.53;;
38034;SDS011;23841;48.524;1.342;2023-06-22T12:24:04;6.10;;;3.13;;
38034;SDS011;23841;48.524;1.342;2023-06-22T12:26:30;5.80;;;3.20;;
38034;SDS011;23841;48.524;1.342;2023-06-22T12:28:55;4.47;;;2.83;;
38034;SDS011;23841;48.524;1.342;2023-06-22T12:31:21;5.55;;;3.80;;
38034;SDS011;23841;48.524;1.342;2023-06-22T12:33:46;4.38;;;2.88;;
38034;SDS011;23841;48.524;1.342;2023-06-22T12:36:12;7.85;;;3.13;;
38034;SDS011;23841;48.524;1.342;2023-06-22T12:38:37;5.45;;;3.10;;
38034;SDS011;23841;48.524;1.342;2023-06-22T12:41:02;4.07;;;2.67;;
38034;SDS011;23841;48.524;1.342;2023-06-22T12:43:29;5.90;;;3.30;;
38034;SDS011;23841;48.524;1.342;2023-06-22T12:45:55;6.22;;;3.53;;
38034;SDS011;23841;48.524;1.342;2023-06-22T12:48:21;5.45;;;3.33;;
38034;SDS011;23841;48.524;1.342;2023-06-22T12:50:47;6.50;;;3.55;;
38034;SDS011;23841;48.524;1.342;2023-06-22T12:53:13;5.28;;;3.33;;
38034;SDS011;23841;48.524;1.342;2023-06-22T12:55:39;5.55;;;3.13;;
38034;SDS011;23841;48.524;1.342;2023-06-22T12:58:04;5.57;;;2.83;;
38034;SDS011;23841;48.524;1.342;2023-06-22T13:00:29;4.88;;;2.78;;
38034;SDS011;23841;48.524;1.342;2023-06-22T13:02:55;6.03;;;3.38;;
38034;SDS011;23841;48.524;1.342;2023-06-22T13:05:20;5.57;;;3.00;;
38034;SDS011;23841;48.524;1.342;2023-06-22T13:07:47;5.47;;;3.00;;
38034;SDS011;23841;48.524;1.342;2023-06-22T13:10:12;4.30;;;3.05;;
38034;SDS011;23841;48.524;1.342;2023-06-22T13:12:38;4.85;;;3.10;;
38034;SDS011;23841;48.524;1.342;2023-06-22T13:15:03;6.93;;;3.30;;
38034;SDS011;23841;48.524;1.342;2023-06-22T13:17:29;5.53;;;3.05;;
38034;SDS011;23841;48.524;1.342;2023-06-22T13:19:55;4.75;;;3.10;;
38034;SDS011;23841;48.524;1.342;2023-06-22T13:22:28;5.07;;;2.95;;
38034;SDS011;23841;48.524;1.342;2023-06-22T13:24:55;4.60;;;2.65;;
38034;SDS011;23841;48.524;1.342;2023-06-22T13:27:21;4.35;;;3.00;;
38034;SDS011;23841;48.524;1.342;2023-06-22T13:29:47;4.82;;;2.72;;
38034;SDS011;23841;48.524;1.342;2023-06-22T13:32:13;5.43;;;3.05;;
38034;SDS011;23841;48.524;1.342;2023-06-22T13:34:38;7.03;;;3.28;;
38034;SDS011;23841;48.524;1.342;2023-06-22T13:37:04;5.65;;;2.88;;
38034;SDS011;23841;48.524;1.342;2023-06-22T13:39:29;5.88;;;3.30;;
38034;SDS011;23841;48.524;1.342;2023-06-22T13:41:55;4.15;;;2.75;;
38034;SDS011;23841;48.524;1.342;2023-06-22T13:44:21;4.68;;;2.85;;
38034;SDS011;23841;48.524;1.342;2023-06-22T13:46:47;4.10;;;2.95;;
38034;SDS011;23841;48.524;1.342;2023-06-22T13:49:12;6.68;;;2.60;;
38034;SDS011;23841;48.524;1.342;2023-06-22T13:51:38;4.68;;;2.78;;
38034;SDS011;23841;48.524;1.342;2023-06-22T13:54:03;5.63;;;2.75;;
38034;SDS011;23841;48.524;1.342;2023-06-22T13:56:29;3.85;;;2.60;;
38034;SDS011;23841;48.524;1.342;2023-06-22T13:58:54;3.95;;;2.67;;
38034;SDS011;23841;48.524;1.342;2023-06-22T14:01:20;5.10;;;2.45;;
38034;SDS011;23841;48.524;1.342;2023-06-22T14:03:46;4.05;;;2.53;;
38034;SDS011;23841;48.524;1.342;2023-06-22T14:06:12;5.78;;;2.63;;
38034;SDS011;23841;48.524;1.342;2023-06-22T14:08:38;3.38;;;2.58;;
38034;SDS011;23841;48.524;1.342;2023-06-22T14:11:03;3.55;;;2.33;;
38034;SDS011;23841;48.524;1.342;2023-06-22T14:13:29;4.95;;;2.08;;
38034;SDS011;23841;48.524;1.342;2023-06-22T14:15:55;3.63;;;2.53;;
38034;SDS011;23841;48.524;1.342;2023-06-22T14:18:20;3.72;;;2.30;;
38034;SDS011;23841;48.524;1.342;2023-06-22T14:20:47;4.70;;;2.55;;
38034;SDS011;23841;48.524;1.342;2023-06-22T14:23:13;5.90;;;2.40;;
38034;SDS011;23841;48.524;1.342;2023-06-22T14:25:39;6.47;;;2.60;;
38034;SDS011;23841;48.524;1.342;2023-06-22T14:28:05;4.82;;;2.72;;
38034;SDS011;23841;48.524;1.342;2023-06-22T14:30:31;5.82;;;2.78;;
38034;SDS011;23841;48.524;1.342;2023-06-22T14:32:56;7.10;;;3.25;;
38034;SDS011;23841;48.524;1.342;2023-06-22T14:35:21;5.38;;;2.70;;
38034;SDS011;23841;48.524;1.342;2023-06-22T14:37:47;6.95;;;2.78;;
38034;SDS011;23841;48.524;1.342;2023-06-22T14:40:14;4.05;;;2.30;;
38034;SDS011;23841;48.524;1.342;2023-06-22T14:42:39;4.82;;;2.70;;
38034;SDS011;23841;48.524;1.342;2023-06-22T14:45:05;4.20;;;2.67;;
38034;SDS011;23841;48.524;1.342;2023-06-22T14:47:32;3.90;;;2.50;;
38034;SDS011;23841;48.524;1.342;2023-06-22T14:49:58;4.70;;;2.70;;
38034;SDS011;23841;48.524;1.342;2023-06-22T14:52:25;4.75;;;2.90;;
38034;SDS011;23841;48.524;1.342;2023-06-22T14:54:51;4.40;;;3.05;;
38034;SDS011;23841;48.524;1.342;2023-06-22T14:57:17;4.85;;;3.10;;